Time;durP1;ratioP1;P1;durP2;ratioP2;P2;SDS_P1;SDS_P2;PMS_P1;PMS_P2;Temp;Humidity;BMP_temperature;BMP_pressure;BME280_temperature;BME280_humidity;BME280_pressure;Samples;Min_cycle;Max_cycle;Signal;HPM_P1;HPM_P2
2022/07/05 00:02:26;;;;;;;9.83;8.93;;;;;;;21.66;65.30;99146.87;1717851;82;20978;-64
2022/07/05 00:04:53;;;;;;;8.83;8.18;;;;;;;21.63;65.41;99152.78;1739588;82;21057;-64
2022/07/05 00:07:19;;;;;;;8.70;7.90;;;;;;;21.61;65.40;99152.22;1727472;82;20929;-64
2022/07/05 00:09:49;;;;;;;10.80;9.28;;;;;;;21.56;65.26;99152.16;1724530;82;21250;-63
2022/07/05 00:12:16;;;;;;;10.08;9.08;;;;;;;21.47;65.16;99141.45;1739000;82;21013;-64
2022/07/05 00:14:43;;;;;;;10.05;9.25;;;;;;;21.37;65.55;99142.66;1725603;82;21567;-64
2022/07/05 00:17:11;;;;;;;9.98;8.33;;;;;;;21.37;65.55;99142.66;1741335;81;21509;-64
2022/07/05 00:19:38;;;;;;;9.48;8.58;;;;;;;21.35;66.01;99140.73;1725873;81;20899;-63
2022/07/05 00:22:05;;;;;;;10.08;8.60;;;;;;;21.34;66.02;99142.63;1725777;81;21250;-64
2022/07/05 00:24:32;;;;;;;10.05;9.20;;;;;;;21.30;66.04;99147.42;1742551;81;21040;-63
2022/07/05 00:26:58;;;;;;;11.38;9.10;;;;;;;21.30;66.04;99147.42;1755810;81;20937;-64
2022/07/05 00:29:25;;;;;;;10.40;9.43;;;;;;;21.29;66.27;99149.84;1727254;81;21017;-63
2022/07/05 00:31:52;;;;;;;10.03;9.10;;;;;;;21.29;66.27;99150.66;1725734;81;20951;-61
2022/07/05 00:34:20;;;;;;;9.93;9.13;;;;;;;21.26;66.31;99145.73;1725858;81;21103;-63
2022/07/05 00:36:46;;;;;;;9.48;8.70;;;;;;;21.24;66.36;99148.41;1739427;81;20989;-62
2022/07/05 00:39:13;;;;;;;11.20;10.08;;;;;;;21.21;66.45;99137.55;1731656;81;20946;-63
2022/07/05 00:41:40;;;;;;;10.78;9.90;;;;;;;21.10;66.55;99145.20;1725754;81;20879;-63
2022/07/05 00:44:09;;;;;;;10.53;9.65;;;;;;;21.10;66.55;99145.20;1744799;81;21095;-62
2022/07/05 00:46:37;;;;;;;11.93;10.72;;;;;;;21.03;66.85;99141.00;1738251;82;21905;-60
2022/07/05 00:49:05;;;;;;;11.25;10.43;;;;;;;20.92;67.01;99138.66;1741308;82;20898;-63
2022/07/05 00:51:35;;;;;;;10.28;9.38;;;;;;;20.81;67.29;99147.13;1717383;82;20972;-63
2022/07/05 00:54:01;;;;;;;9.98;9.15;;;;;;;20.68;67.40;99146.08;1696652;84;20951;-63
2022/07/05 00:56:28;;;;;;;10.85;9.88;;;;;;;20.55;67.75;99143.68;1679163;84;21041;-62
2022/07/05 00:58:56;;;;;;;10.13;9.33;;;;;;;20.48;68.04;99150.30;1725904;81;21240;-63
2022/07/05 01:01:22;;;;;;;10.18;9.30;;;;;;;20.40;68.25;99142.05;1728948;81;20919;-63
2022/07/05 01:03:49;;;;;;;9.88;8.98;;;;;;;20.34;68.55;99144.36;1743626;81;21040;-63
2022/07/05 01:06:15;;;;;;;9.80;8.90;;;;;;;20.28;68.85;99140.73;1741974;81;21054;-63
2022/07/05 01:08:42;;;;;;;11.03;9.30;;;;;;;20.26;69.05;99140.16;1725972;81;20860;-62
2022/07/05 01:11:10;;;;;;;10.43;9.53;;;;;;;20.25;69.27;99149.88;1744629;81;22133;-62
2022/07/05 01:13:37;;;;;;;11.88;9.70;;;;;;;20.21;69.37;99144.61;1727659;81;21017;-63
2022/07/05 01:16:05;;;;;;;9.88;9.03;;;;;;;20.20;69.63;99139.77;1742471;81;20903;-63
2022/07/05 01:18:32;;;;;;;9.90;9.10;;;;;;;20.21;69.73;99140.56;1747814;81;20958;-62
2022/07/05 01:20:59;;;;;;;11.08;9.95;;;;;;;20.18;69.65;99147.78;1691249;83;21559;-63
2022/07/05 01:23:27;;;;;;;9.63;8.48;;;;;;;20.15;69.62;99146.38;1706971;84;22156;-63
2022/07/05 01:25:54;;;;;;;12.00;9.18;;;;;;;20.14;69.55;99146.64;1731479;81;20995;-63
2022/07/05 01:28:21;;;;;;;10.30;9.10;;;;;;;20.07;69.02;99152.72;1698244;83;20930;-62
2022/07/05 01:30:47;;;;;;;10.72;9.30;;;;;;;19.97;69.15;99155.20;1729298;81;20950;-63
2022/07/05 01:33:14;;;;;;;9.83;9.03;;;;;;;19.90;69.12;99153.15;1688678;84;20946;-63
2022/07/05 01:35:41;;;;;;;9.75;8.80;;;;;;;19.87;69.72;99150.92;1726669;81;21266;-63
2022/07/05 01:38:09;;;;;;;9.18;8.45;;;;;;;19.86;70.05;99158.22;1725810;81;20885;-63
2022/07/05 01:40:36;;;;;;;10.32;9.33;;;;;;;19.84;69.70;99156.82;1698107;82;21494;-62
2022/07/05 01:43:04;;;;;;;10.40;9.28;;;;;;;19.75;69.72;99159.58;1725067;81;20993;-62
2022/07/05 01:45:39;;;;;;;10.38;9.38;;;;;;;19.71;69.77;99165.97;1725509;83;21468;-63
2022/07/05 01:48:10;;;;;;;11.53;10.32;;;;;;;19.68;69.92;99165.91;1726138;81;21571;-63
2022/07/05 01:50:43;;;;;;;10.32;9.40;;;;;;;19.69;70.23;99168.91;1714837;83;21000;-63
2022/07/05 01:53:13;;;;;;;11.40;10.45;;;;;;;19.73;70.65;99168.72;1727095;81;21469;-62
2022/07/05 01:55:40;;;;;;;11.73;10.53;;;;;;;19.80;70.94;99173.17;1740091;81;20945;-63
2022/07/05 01:58:07;;;;;;;11.50;10.55;;;;;;;19.86;71.24;99175.77;1733205;81;21007;-64
2022/07/05 02:00:48;;;;;;;9.25;8.55;;;;;;;19.90;71.43;99167.47;1723984;81;21248;-63
2022/07/05 02:03:15;;;;;;;10.18;9.18;;;;;;;19.96;71.18;99165.70;1708376;81;21485;-63
2022/07/05 02:05:42;;;;;;;10.68;9.85;;;;;;;19.97;70.90;99163.31;1707915;81;20884;-62
2022/07/05 02:08:11;;;;;;;11.28;10.35;;;;;;;19.99;70.80;99171.98;1708585;81;20892;-62
2022/07/05 02:10:39;;;;;;;10.93;9.93;;;;;;;19.99;70.80;99170.63;1708356;81;20983;-62
2022/07/05 02:13:06;;;;;;;10.63;9.63;;;;;;;19.98;70.78;99171.16;1729203;81;21261;-63
2022/07/05 02:15:36;;;;;;;11.38;10.28;;;;;;;19.97;70.75;99172.76;1713921;81;20993;-62
2022/07/05 02:18:03;;;;;;;11.55;10.45;;;;;;;20.00;70.86;99173.61;1731218;81;20867;-61
2022/07/05 02:20:32;;;;;;;11.30;10.30;;;;;;;20.04;70.92;99174.78;1718293;82;21002;-63
2022/07/05 02:23:00;;;;;;;12.30;11.20;;;;;;;20.07;71.06;99175.14;1718497;82;21465;-62
2022/07/05 02:25:27;;;;;;;12.73;11.53;;;;;;;20.13;71.22;99176.04;1724164;82;21152;-63
2022/07/05 02:27:55;;;;;;;12.63;11.43;;;;;;;20.20;71.25;99177.57;1738075;82;20958;-62
2022/07/05 02:30:21;;;;;;;12.40;11.40;;;;;;;20.27;71.22;99175.58;1729263;82;21076;-63
2022/07/05 02:32:49;;;;;;;12.23;11.12;;;;;;;20.32;71.00;99174.85;1741085;82;20971;-62
2022/07/05 02:35:15;;;;;;;12.65;11.50;;;;;;;20.35;70.84;99177.60;1748088;82;20950;-62
2022/07/05 02:37:42;;;;;;;12.73;10.88;;;;;;;20.37;70.86;99168.20;1738743;82;21323;-63
2022/07/05 02:40:13;;;;;;;11.40;10.40;;;;;;;20.41;70.76;99168.02;1731990;82;20862;-64
2022/07/05 02:42:42;;;;;;;12.07;10.43;;;;;;;20.44;70.63;99166.16;1723959;82;21002;-63
2022/07/05 02:45:10;;;;;;;11.60;10.45;;;;;;;20.47;70.37;99173.78;1723514;82;20950;-62
2022/07/05 02:47:37;;;;;;;11.15;10.15;;;;;;;20.50;69.93;99173.31;1737995;82;21062;-63
2022/07/05 02:50:09;;;;;;;11.85;10.55;;;;;;;20.53;69.61;99182.81;1724674;82;21229;-63
2022/07/05 02:52:37;;;;;;;11.95;10.88;;;;;;;20.56;69.70;99176.41;1718275;82;20896;-62
2022/07/05 02:55:06;;;;;;;11.63;10.53;;;;;;;20.63;69.67;99174.38;1720184;82;20959;-63
2022/07/05 02:57:33;;;;;;;11.10;10.10;;;;;;;20.68;69.52;99177.16;1741548;82;20910;-63
2022/07/05 03:00:01;;;;;;;11.00;9.85;;;;;;;20.74;69.12;99177.55;1722917;82;21504;-62
2022/07/05 03:02:30;;;;;;;11.48;10.53;;;;;;;20.78;69.07;99176.52;1731013;82;21357;-63
2022/07/05 03:04:58;;;;;;;10.82;9.73;;;;;;;20.85;69.13;99178.55;1737249;82;21032;-63
2022/07/05 03:07:25;;;;;;;11.40;10.35;;;;;;;20.91;69.13;99180.27;1746090;82;20973;-63
2022/07/05 03:09:53;;;;;;;11.75;10.25;;;;;;;20.94;68.75;99188.72;1727060;82;20979;-62
2022/07/05 03:12:21;;;;;;;12.00;10.93;;;;;;;21.00;68.53;99186.92;1718451;82;20867;-63
2022/07/05 03:14:48;;;;;;;11.25;10.20;;;;;;;21.06;68.37;99194.59;1725482;82;21292;-63
2022/07/05 03:17:16;;;;;;;11.70;10.70;;;;;;;21.09;68.30;99190.88;1737371;82;20911;-63
2022/07/05 03:19:42;;;;;;;11.43;10.32;;;;;;;21.17;68.30;99197.24;1738507;82;20934;-63
2022/07/05 03:22:09;;;;;;;10.98;9.88;;;;;;;21.23;68.19;99194.92;1741959;82;21081;-62
2022/07/05 03:24:37;;;;;;;10.53;9.73;;;;;;;21.27;67.83;99197.44;1717808;82;21520;-63
2022/07/05 03:27:04;;;;;;;12.13;9.80;;;;;;;21.30;67.54;99198.27;1717734;82;21225;-62
2022/07/05 03:29:31;;;;;;;11.88;10.72;;;;;;;21.38;67.64;99201.92;1734309;82;21004;-63
2022/07/05 03:31:58;;;;;;;11.57;10.38;;;;;;;21.72;67.16;99201.91;1747536;82;20959;-62
2022/07/05 03:34:25;;;;;;;11.50;10.03;;;;;;;21.72;67.16;99201.91;1726515;82;21492;-64
2022/07/05 03:36:53;;;;;;;11.83;10.48;;;;;;;21.94;66.79;99206.32;1732158;82;20926;-63
2022/07/05 03:39:20;;;;;;;17.85;10.90;;;;;;;22.83;64.91;99193.84;1730256;82;21145;-63
2022/07/05 03:41:47;;;;;;;16.02;10.68;;;;;;;22.83;64.91;99193.84;1717959;82;21472;-64
2022/07/05 03:44:16;;;;;;;13.15;10.43;;;;;;;23.42;63.62;99198.19;1733046;81;20895;-63
2022/07/05 03:46:42;;;;;;;12.40;10.25;;;;;;;24.02;61.86;99199.66;1717917;82;20950;-64
2022/07/05 03:49:09;;;;;;;14.68;10.60;;;;;;;24.61;60.24;99201.04;1733582;82;20943;-64
2022/07/05 03:51:36;;;;;;;10.40;9.40;;;;;;;25.20;58.68;99204.15;1718545;82;21602;-64
2022/07/05 03:54:03;;;;;;;11.43;10.38;;;;;;;25.81;56.94;99209.05;1717776;82;20998;-63
2022/07/05 03:56:30;;;;;;;11.63;10.55;;;;;;;26.38;55.23;99203.70;1723454;82;21048;-64
2022/07/05 03:58:58;;;;;;;16.17;12.88;;;;;;;26.94;53.72;99200.41;1738405;82;20880;-64
2022/07/05 04:01:25;;;;;;;12.37;11.25;;;;;;;27.49;52.15;99193.73;1732954;82;20980;-64
2022/07/05 04:03:53;;;;;;;10.50;9.60;;;;;;;28.01;50.96;99195.69;1717844;82;21825;-63
2022/07/05 04:06:20;;;;;;;10.68;9.70;;;;;;;28.55;49.40;99191.76;1717653;82;20959;-64
2022/07/05 04:08:47;;;;;;;10.05;9.08;;;;;;;29.07;48.15;99194.86;1719635;82;20986;-64
2022/07/05 04:11:15;;;;;;;10.23;9.10;;;;;;;29.63;46.91;99190.64;1723888;82;20954;-64
2022/07/05 04:13:43;;;;;;;9.95;8.93;;;;;;;30.23;45.55;99190.89;1717819;82;20982;-64
2022/07/05 04:16:11;;;;;;;9.30;8.50;;;;;;;30.82;44.25;99190.45;1717720;82;21245;-64
2022/07/05 04:18:38;;;;;;;13.05;8.95;;;;;;;31.37;43.01;99182.28;1744756;82;21046;-63
2022/07/05 04:21:05;;;;;;;10.20;9.20;;;;;;;31.94;41.70;99181.10;1735392;82;21504;-62
2022/07/05 04:23:31;;;;;;;11.75;9.08;;;;;;;32.46;40.42;99184.86;1730625;81;21512;-62
2022/07/05 04:26:00;;;;;;;9.70;8.85;;;;;;;32.97;39.24;99178.05;1726598;82;21440;-62
2022/07/05 04:28:31;;;;;;;9.15;8.43;;;;;;;33.50;38.26;99179.88;1725911;82;21145;-63
2022/07/05 04:30:59;;;;;;;9.30;8.55;;;;;;;34.00;37.24;99175.92;1732994;82;21020;-64
2022/07/05 04:33:26;;;;;;;9.40;8.05;;;;;;;34.54;36.27;99172.02;1718118;82;21489;-64
2022/07/05 04:35:55;;;;;;;11.93;8.35;;;;;;;35.09;35.29;99171.25;1725908;82;21009;-64
2022/07/05 04:38:22;;;;;;;10.23;9.03;;;;;;;35.59;34.46;99167.53;1734974;82;20923;-64
2022/07/05 04:40:49;;;;;;;9.43;8.38;;;;;;;36.01;33.71;99166.22;1737444;82;21145;-64
2022/07/05 04:43:16;;;;;;;13.30;9.25;;;;;;;36.37;32.96;99163.44;1717860;82;20978;-64
2022/07/05 04:45:44;;;;;;;12.78;8.68;;;;;;;36.57;32.36;99167.27;1724963;82;20993;-63
2022/07/05 04:48:11;;;;;;;15.35;13.70;;;;;;;36.86;32.06;99167.55;1718754;82;20983;-63
2022/07/05 04:50:38;;;;;;;13.70;10.75;;;;;;;37.30;31.37;99165.66;1733739;82;20997;-63
2022/07/05 04:53:06;;;;;;;13.53;10.28;;;;;;;37.75;30.73;99157.00;1707782;81;21245;-63
2022/07/05 04:55:34;;;;;;;11.03;9.55;;;;;;;38.12;30.04;99154.20;1745712;81;21005;-63
2022/07/05 04:58:00;;;;;;;12.55;8.90;;;;;;;38.50;29.62;99160.47;1733982;80;20995;-63
2022/07/05 05:00:27;;;;;;;11.18;8.80;;;;;;;38.90;29.15;99156.23;1756907;80;20989;-63
2022/07/05 05:02:53;;;;;;;12.53;9.25;;;;;;;39.26;28.50;99151.43;1738167;80;21416;-63
2022/07/05 05:05:19;;;;;;;9.90;8.95;;;;;;;39.60;27.70;99152.47;1750915;81;21429;-64
2022/07/05 05:07:46;;;;;;;12.53;9.03;;;;;;;39.91;27.21;99148.07;1730590;81;21505;-64
2022/07/05 05:10:13;;;;;;;9.93;8.58;;;;;;;40.08;27.06;99146.99;1735625;81;21022;-63
2022/07/05 05:12:39;;;;;;;11.75;8.85;;;;;;;40.36;26.76;99148.00;1730616;81;21026;-63
2022/07/05 05:15:09;;;;;;;9.13;8.08;;;;;;;40.69;26.40;99150.11;1748122;81;21061;-63
2022/07/05 05:17:40;;;;;;;15.32;10.63;;;;;;;41.02;25.49;99150.75;1739082;81;21876;-63
2022/07/05 05:20:10;;;;;;;8.45;7.65;;;;;;;41.41;24.49;99152.03;1740903;80;22236;-63
2022/07/05 05:22:38;;;;;;;10.45;8.38;;;;;;;41.75;23.29;99148.60;1740645;82;21042;-63
2022/07/05 05:25:06;;;;;;;11.97;7.87;;;;;;;42.03;23.12;99144.64;1734905;82;20943;-64
2022/07/05 05:27:33;;;;;;;12.63;8.13;;;;;;;42.48;22.85;99157.38;1745340;82;21034;-64
2022/07/05 05:30:00;;;;;;;15.63;7.28;;;;;;;42.89;22.45;99159.44;1733170;82;21226;-64
2022/07/05 05:32:26;;;;;;;10.60;8.65;;;;;;;43.35;21.85;99162.45;1721246;82;20994;-63
2022/07/05 05:34:52;;;;;;;11.33;7.03;;;;;;;43.82;21.63;99157.16;1724886;82;20927;-64
2022/07/05 05:37:19;;;;;;;10.40;7.00;;;;;;;44.19;20.96;99160.39;1737282;82;20930;-64
2022/07/05 05:39:45;;;;;;;9.45;6.83;;;;;;;44.51;20.44;99158.34;1740135;82;20966;-65
2022/07/05 05:42:12;;;;;;;16.93;8.73;;;;;;;44.93;20.24;99156.63;1739722;82;21212;-65
2022/07/05 05:44:40;;;;;;;14.58;7.37;;;;;;;45.22;19.64;99159.50;1724372;82;21049;-65
2022/07/05 05:47:06;;;;;;;9.65;7.05;;;;;;;45.22;19.47;99158.91;1745875;82;20995;-64
2022/07/05 05:49:33;;;;;;;7.15;6.42;;;;;;;45.30;19.48;99164.71;1725332;82;20999;-64
2022/07/05 05:52:00;;;;;;;7.87;7.17;;;;;;;45.51;19.02;99162.37;1740037;82;22044;-64
2022/07/05 05:54:26;;;;;;;7.50;6.05;;;;;;;45.50;18.23;99156.55;1728002;82;21861;-64
2022/07/05 05:56:53;;;;;;;6.62;6.00;;;;;;;45.48;18.44;99162.39;1738689;82;21005;-63
2022/07/05 05:59:19;;;;;;;6.67;5.37;;;;;;;45.72;18.19;99152.42;1723917;82;21580;-64
2022/07/05 06:01:46;;;;;;;5.95;5.30;;;;;;;45.74;18.08;99148.59;1742388;82;21558;-65
2022/07/05 06:04:12;;;;;;;9.18;4.62;;;;;;;45.91;18.05;99156.70;1740304;82;21433;-66
2022/07/05 06:06:39;;;;;;;6.45;5.50;;;;;;;46.32;17.64;99151.12;1737192;82;21740;-64
2022/07/05 06:09:05;;;;;;;7.53;4.90;;;;;;;46.56;16.94;99150.10;1743079;82;21044;-64
2022/07/05 06:11:32;;;;;;;5.12;4.70;;;;;;;46.65;17.09;99156.01;1733561;81;20974;-62
2022/07/05 06:13:58;;;;;;;5.80;5.30;;;;;;;47.05;16.69;99154.35;1728128;82;20969;-62
2022/07/05 06:16:25;;;;;;;6.17;5.67;;;;;;;47.29;16.64;99155.27;1743878;82;20894;-62
2022/07/05 06:18:52;;;;;;;6.53;5.83;;;;;;;47.45;16.40;99165.30;1735263;80;21286;-63
2022/07/05 06:21:18;;;;;;;8.65;6.17;;;;;;;47.51;16.56;99167.83;1730323;82;21028;-63
2022/07/05 06:23:44;;;;;;;7.83;6.05;;;;;;;47.93;16.24;99164.38;1736810;82;20923;-64
2022/07/05 06:26:11;;;;;;;10.03;5.53;;;;;;;48.24;16.30;99163.66;1727156;82;20976;-63
2022/07/05 06:28:37;;;;;;;11.53;5.22;;;;;;;48.67;15.36;99160.88;1732599;82;21046;-66
2022/07/05 06:31:04;;;;;;;6.08;5.35;;;;;;;48.49;15.55;99163.22;1737173;81;22107;-64
2022/07/05 06:33:31;;;;;;;7.22;4.85;;;;;;;48.55;15.77;99164.35;1727423;80;20942;-69
2022/07/05 06:35:58;;;;;;;5.33;4.83;;;;;;;48.86;15.53;99169.97;1731076;82;21050;-64
2022/07/05 06:38:25;;;;;;;5.30;4.95;;;;;;;49.16;14.96;99164.09;1717747;82;20986;-64
2022/07/05 06:40:51;;;;;;;4.62;4.20;;;;;;;49.27;14.77;99169.55;1718242;82;20943;-65
2022/07/05 06:43:17;;;;;;;4.78;4.33;;;;;;;48.92;14.52;99161.19;1718011;82;21933;-64
2022/07/05 06:45:55;;;;;;;4.37;3.98;;;;;;;48.22;15.25;99163.30;1717718;82;20983;-64
2022/07/05 06:48:22;;;;;;;4.17;3.77;;;;;;;47.87;15.56;99167.52;1728055;82;21433;-64
2022/07/05 06:50:48;;;;;;;4.30;4.00;;;;;;;48.14;15.41;99165.43;1728165;82;20950;-64
2022/07/05 06:53:15;;;;;;;3.45;3.17;;;;;;;48.53;15.15;99165.38;1725410;82;20903;-64
2022/07/05 06:55:44;;;;;;;4.37;3.60;;;;;;;48.97;14.50;99166.32;1747664;82;21246;-64
2022/07/05 06:58:11;;;;;;;8.95;3.80;;;;;;;49.09;14.37;99164.27;1721218;82;20952;-64
2022/07/05 07:00:42;;;;;;;3.60;3.30;;;;;;;49.37;14.39;99166.48;1717854;82;20884;-64
2022/07/05 07:03:08;;;;;;;3.67;3.37;;;;;;;49.85;13.55;99165.77;1717924;82;20935;-64
2022/07/05 07:05:35;;;;;;;4.60;4.20;;;;;;;49.93;13.61;99162.95;1718099;82;21026;-64
2022/07/05 07:10:49;;;;;;;4.58;4.12;;;;;;;49.46;14.11;99160.23;1717903;82;20919;-64
2022/07/05 07:13:19;;;;;;;4.70;4.30;;;;;;;49.39;14.40;99158.36;1717838;82;20999;-64
2022/07/05 07:15:47;;;;;;;4.30;4.00;;;;;;;49.24;14.06;99157.70;1717809;82;21006;-63
2022/07/05 07:18:15;;;;;;;6.22;4.47;;;;;;;49.24;14.06;99157.70;1718922;82;21085;-64
2022/07/05 07:20:42;;;;;;;4.15;3.70;;;;;;;48.45;14.53;99162.50;1747379;80;21085;-63
2022/07/05 07:23:09;;;;;;;6.55;4.72;;;;;;;47.81;15.34;99160.73;1750604;80;20890;-63
2022/07/05 07:25:35;;;;;;;4.40;4.00;;;;;;;47.73;15.56;99163.48;1737217;80;21005;-64
2022/07/05 07:28:02;;;;;;;4.37;3.98;;;;;;;48.05;15.43;99164.40;1730425;81;21072;-63
2022/07/05 07:30:29;;;;;;;3.85;3.55;;;;;;;48.12;15.13;99168.49;1751070;80;20942;-63
2022/07/05 07:32:57;;;;;;;4.15;3.83;;;;;;;48.52;14.80;99160.95;1760555;80;21009;-64
2022/07/05 07:35:25;;;;;;;4.03;3.80;;;;;;;48.52;14.80;99160.95;1760657;80;37558;-63
2022/07/05 07:37:51;;;;;;;4.97;3.58;;;;;;;49.12;14.64;99154.92;1732873;81;20983;-63
2022/07/05 07:40:18;;;;;;;8.18;3.52;;;;;;;49.50;14.53;99153.88;1730390;81;21045;-64
2022/07/05 07:42:44;;;;;;;3.45;3.15;;;;;;;50.20;13.88;99149.14;1730370;81;20985;-63
2022/07/05 07:45:11;;;;;;;5.25;3.65;;;;;;;50.74;13.28;99147.91;1730639;81;21142;-64
2022/07/05 07:47:37;;;;;;;4.78;4.25;;;;;;;50.84;12.96;99149.64;1730471;81;20926;-64
2022/07/05 07:50:06;;;;;;;4.25;3.72;;;;;;;50.42;13.00;99158.07;1712753;82;20975;-64
2022/07/05 07:52:34;;;;;;;5.37;3.90;;;;;;;50.26;13.22;99157.30;1674936;84;21488;-64
2022/07/05 07:55:01;;;;;;;6.87;3.95;;;;;;;50.38;12.78;99161.60;1733478;82;21382;-63
2022/07/05 07:57:28;;;;;;;3.47;3.27;;;;;;;50.44;12.84;99162.66;1712636;82;21243;-62
2022/07/05 07:59:55;;;;;;;3.72;3.42;;;;;;;50.46;12.96;99164.41;1712563;82;20935;-64
2022/07/05 08:02:22;;;;;;;3.80;3.50;;;;;;;50.47;12.60;99169.45;1713002;82;20935;-64
2022/07/05 08:04:50;;;;;;;3.60;3.30;;;;;;;50.22;12.91;99160.19;1689056;84;21011;-64
2022/07/05 08:07:18;;;;;;;4.35;3.55;;;;;;;50.61;12.69;99163.45;1747773;82;21511;-64
2022/07/05 08:09:45;;;;;;;4.75;3.40;;;;;;;50.78;12.36;99158.50;1725110;82;21121;-64
2022/07/05 08:12:12;;;;;;;3.90;3.20;;;;;;;50.84;12.53;99158.13;1717763;82;20887;-63
2022/07/05 08:14:38;;;;;;;4.20;3.20;;;;;;;51.07;12.22;99164.95;1717771;82;20931;-64
2022/07/05 08:17:08;;;;;;;3.35;3.12;;;;;;;51.25;12.27;99160.95;1725647;82;20962;-63
2022/07/05 08:22:19;;;;;;;3.47;3.17;;;;;;;51.91;11.75;99152.20;1743856;81;22151;-63
2022/07/05 08:24:46;;;;;;;3.70;3.40;;;;;;;52.17;11.49;99155.17;1729787;81;21001;-63
2022/07/05 08:27:12;;;;;;;4.37;3.00;;;;;;;52.43;11.31;99151.03;1723736;81;20943;-63
2022/07/05 08:29:39;;;;;;;3.40;3.10;;;;;;;52.72;11.10;99160.13;1723669;81;21018;-64
2022/07/05 08:32:08;;;;;;;3.20;3.00;;;;;;;52.82;10.85;99154.66;1723623;81;21016;-65
2022/07/05 08:34:35;;;;;;;4.90;3.17;;;;;;;52.82;10.64;99157.51;1744774;81;21141;-65
2022/07/05 08:37:01;;;;;;;3.17;2.98;;;;;;;52.34;10.68;99148.89;1723771;81;20927;-63
2022/07/05 08:39:28;;;;;;;3.25;3.05;;;;;;;51.55;11.37;99156.16;1703475;83;20954;-64
2022/07/05 08:41:55;;;;;;;3.30;3.10;;;;;;;51.30;11.46;99153.34;1753701;81;21442;-63
2022/07/05 08:44:22;;;;;;;3.45;3.25;;;;;;;51.42;11.40;99151.77;1714313;81;21442;-63
2022/07/05 08:46:52;;;;;;;3.62;3.33;;;;;;;50.94;11.00;99149.97;1720372;81;21212;-63
2022/07/05 08:49:24;;;;;;;3.58;3.27;;;;;;;49.53;11.83;99150.78;1753507;81;20966;-64
2022/07/05 09:03:50;;;;;;;3.40;3.20;;;;;;;50.42;11.34;99145.95;1796274;78;22167;-67
2022/07/05 09:06:20;;;;;;;3.60;3.30;;;;;;;50.92;11.42;99143.94;1769695;80;21014;-68
2022/07/05 09:08:48;;;;;;;3.37;3.12;;;;;;;51.68;10.95;99147.06;1766160;80;21224;-68
2022/07/05 09:11:16;;;;;;;4.22;3.20;;;;;;;51.78;10.21;99144.52;1752491;80;20941;-68
2022/07/05 09:13:50;;;;;;;3.45;3.25;;;;;;;51.51;10.05;99144.16;1769612;80;21051;-67
2022/07/05 09:16:17;;;;;;;3.47;3.10;;;;;;;51.14;10.75;99142.87;1760337;80;26627;-68
2022/07/05 09:18:49;;;;;;;3.62;3.40;;;;;;;51.12;11.10;99132.63;1769813;80;20947;-68
2022/07/05 09:21:26;;;;;;;3.40;3.20;;;;;;;51.09;11.09;99136.97;1771496;80;21957;-68
2022/07/05 09:24:01;;;;;;;4.00;3.70;;;;;;;50.96;11.07;99129.88;1775925;80;21476;-67
2022/07/05 09:26:46;;;;;;;4.25;3.77;;;;;;;50.68;11.41;99134.13;1762534;80;20951;-67
2022/07/05 09:29:16;;;;;;;3.77;3.58;;;;;;;50.02;11.90;99135.47;1777752;80;21061;-68
2022/07/05 09:31:45;;;;;;;7.17;3.42;;;;;;;48.81;12.60;99134.56;1768509;80;20986;-68
2022/07/05 09:34:14;;;;;;;5.28;3.35;;;;;;;47.43;13.68;99136.77;1766778;80;21842;-67
2022/07/05 09:37:04;;;;;;;5.55;3.83;;;;;;;47.06;13.97;99135.62;1725313;81;20946;-67
2022/07/05 09:39:36;;;;;;;4.10;3.70;;;;;;;45.98;14.81;99134.95;1735775;81;20955;-68
2022/07/05 09:42:23;;;;;;;4.20;3.58;;;;;;;44.41;15.88;99136.70;1715621;82;20907;-68
2022/07/05 09:44:49;;;;;;;3.80;3.50;;;;;;;43.22;17.16;99136.80;1731449;82;20993;-68
2022/07/05 09:47:23;;;;;;;4.22;3.72;;;;;;;42.24;18.50;99132.27;1720314;82;21253;-66
2022/07/05 09:49:56;;;;;;;3.98;3.65;;;;;;;41.59;19.27;99134.86;1716868;82;20907;-67
2022/07/05 09:52:34;;;;;;;4.67;4.37;;;;;;;40.87;19.81;99137.20;1722185;82;21459;-67
2022/07/05 09:55:10;;;;;;;4.53;3.85;;;;;;;40.18;20.89;99136.41;1713436;82;21481;-67
2022/07/05 09:57:39;;;;;;;4.62;4.33;;;;;;;39.59;21.27;99143.30;1707113;82;21018;-67
2022/07/05 10:00:12;;;;;;;4.62;4.08;;;;;;;39.02;21.57;99138.61;1723518;82;21262;-67
2022/07/05 10:02:55;;;;;;;4.20;3.90;;;;;;;38.60;22.41;99144.05;1722922;82;21007;-67
2022/07/05 10:05:23;;;;;;;6.20;4.22;;;;;;;38.44;23.07;99139.69;1704589;83;21433;-68
2022/07/05 10:07:52;;;;;;;4.22;3.92;;;;;;;38.30;23.19;99136.80;1689403;83;20939;-67
2022/07/05 10:10:26;;;;;;;3.95;3.70;;;;;;;38.17;23.06;99133.89;1698381;83;21051;-66
2022/07/05 10:12:58;;;;;;;3.90;3.70;;;;;;;38.06;23.10;99125.09;1706942;83;21108;-67
2022/07/05 10:15:27;;;;;;;3.98;3.67;;;;;;;37.93;23.25;99124.97;1768918;80;20833;-67
2022/07/05 10:18:15;;;;;;;4.33;3.92;;;;;;;37.85;23.08;99127.31;1750382;80;20947;-67
2022/07/05 10:20:45;;;;;;;7.30;3.80;;;;;;;37.83;23.18;99133.23;1769882;80;21433;-67
2022/07/05 10:23:15;;;;;;;4.50;4.10;;;;;;;37.83;23.28;99129.08;1702736;82;21417;-67
2022/07/05 10:25:47;;;;;;;6.60;3.85;;;;;;;37.68;23.22;99125.69;1759884;80;21230;-66
2022/07/05 10:28:13;;;;;;;4.92;3.35;;;;;;;37.58;23.63;99122.06;1745694;80;21387;-67
2022/07/05 10:30:40;;;;;;;4.67;4.05;;;;;;;37.56;23.69;99121.05;1752330;80;21470;-67
2022/07/05 10:33:07;;;;;;;4.12;3.62;;;;;;;37.56;23.58;99116.89;1766092;80;21508;-67
2022/07/05 10:35:34;;;;;;;4.17;3.87;;;;;;;37.52;23.79;99122.91;1766703;80;20904;-67
2022/07/05 10:38:02;;;;;;;3.87;3.52;;;;;;;37.48;23.70;99120.64;1758285;80;21147;-67
2022/07/05 10:40:30;;;;;;;3.70;3.40;;;;;;;37.42;23.57;99118.47;1751702;80;21515;-67
2022/07/05 10:43:00;;;;;;;4.53;4.15;;;;;;;37.38;23.56;99119.75;1765022;80;21018;-66
2022/07/05 10:45:36;;;;;;;6.67;3.85;;;;;;;37.33;23.38;99114.46;1745370;80;20935;-66
2022/07/05 10:48:15;;;;;;;6.35;4.12;;;;;;;37.26;23.77;99112.86;1755078;80;20840;-67
2022/07/05 10:51:00;;;;;;;4.70;4.30;;;;;;;37.17;23.95;99110.03;1752498;80;21251;-67
2022/07/05 10:53:41;;;;;;;4.17;3.77;;;;;;;37.04;23.78;99108.72;1751848;80;20919;-68
2022/07/05 10:56:14;;;;;;;4.70;4.30;;;;;;;36.85;23.64;99104.38;1753824;80;20988;-67
2022/07/05 10:58:45;;;;;;;5.15;4.58;;;;;;;36.60;24.10;99104.23;1768250;80;20948;-67
2022/07/05 11:01:26;;;;;;;6.53;4.15;;;;;;;36.35;23.94;99100.67;1759225;80;20880;-67
2022/07/05 11:04:04;;;;;;;4.78;4.15;;;;;;;36.20;24.23;99106.93;1744471;80;21240;-68
2022/07/05 11:06:42;;;;;;;9.63;3.83;;;;;;;36.00;24.54;99104.27;1760418;80;20994;-68
2022/07/05 11:09:15;;;;;;;5.05;3.50;;;;;;;35.93;24.81;99102.88;1754890;80;20983;-68
2022/07/05 11:11:55;;;;;;;4.12;3.80;;;;;;;35.90;24.61;99101.39;1772927;80;20935;-68
2022/07/05 11:14:29;;;;;;;4.12;3.87;;;;;;;35.80;24.80;99097.67;1744292;80;20935;-68
2022/07/05 11:17:19;;;;;;;4.83;4.03;;;;;;;35.66;24.74;99097.22;1752315;80;20983;-68
2022/07/05 11:20:13;;;;;;;7.12;3.42;;;;;;;35.59;25.30;99091.46;1725618;80;22121;-68
2022/07/05 11:23:07;;;;;;;4.53;3.67;;;;;;;35.52;25.75;99087.84;1747557;80;20923;-67
2022/07/05 11:25:36;;;;;;;4.03;3.60;;;;;;;35.43;26.15;99084.95;1754274;80;20957;-68
2022/07/05 11:28:18;;;;;;;3.62;3.42;;;;;;;35.30;26.27;99086.29;1769389;80;20852;-68
2022/07/05 11:30:48;;;;;;;3.42;3.22;;;;;;;35.28;26.42;99084.45;1757294;80;21134;-68
2022/07/05 11:33:38;;;;;;;3.77;3.47;;;;;;;35.32;26.71;99084.58;1744169;80;21025;-68
2022/07/05 11:36:10;;;;;;;3.72;3.42;;;;;;;35.37;26.80;99082.16;1744138;80;22447;-68
2022/07/05 11:39:08;;;;;;;3.83;3.50;;;;;;;35.42;26.67;99083.32;1751825;80;20990;-68
2022/07/05 11:41:34;;;;;;;4.85;3.37;;;;;;;35.42;26.84;99076.41;1761464;80;20892;-68
2022/07/05 11:44:01;;;;;;;4.85;3.52;;;;;;;35.37;26.66;99076.06;1762373;80;21954;-68
2022/07/05 11:46:28;;;;;;;3.67;3.30;;;;;;;35.29;26.44;99068.10;1763803;80;21451;-70
2022/07/05 11:48:54;;;;;;;4.33;4.03;;;;;;;35.22;26.36;99075.34;1764321;80;21445;-69
2022/07/05 11:51:21;;;;;;;4.47;3.60;;;;;;;35.14;26.26;99070.14;1748568;80;21448;-69
2022/07/05 11:53:47;;;;;;;4.28;3.52;;;;;;;35.05;26.55;99069.42;1761779;80;21006;-69
2022/07/05 11:56:14;;;;;;;10.65;3.20;;;;;;;34.85;27.03;99070.81;1764487;80;21163;-69